createdAt,value
2018-04-12T00:02:12.596Z,52.73
2018-04-12T00:04:38.401Z,52.10
2018-04-12T00:07:04.208Z,52.46
2018-04-12T00:09:30.049Z,51.97
2018-04-12T00:11:55.852Z,52.61
2018-04-12T00:14:21.660Z,52.60
2018-04-12T00:16:47.465Z,52.89
2018-04-12T00:19:13.272Z,52.50
2018-04-12T00:21:39.081Z,52.63
2018-04-12T00:24:04.894Z,52.61
2018-04-12T00:26:30.737Z,52.81
2018-04-12T00:28:56.545Z,53.49
2018-04-12T00:31:22.353Z,53.35
2018-04-12T00:33:48.333Z,53.29
2018-04-12T00:36:14.148Z,52.86
2018-04-12T00:38:39.961Z,53.32
2018-04-12T00:41:05.766Z,53.44
2018-04-12T00:43:31.569Z,53.57
2018-04-12T00:45:57.406Z,53.73
2018-04-12T00:48:23.225Z,53.90
2018-04-12T00:50:49.045Z,53.55
2018-04-12T00:53:20.944Z,53.65
2018-04-12T00:55:46.817Z,53.59
2018-04-12T00:58:12.624Z,53.77
2018-04-12T01:00:38.432Z,53.63
2018-04-12T01:03:04.238Z,53.97
2018-04-12T01:05:30.073Z,53.23
2018-04-12T01:07:56.020Z,53.59
2018-04-12T01:10:21.865Z,53.00
2018-04-12T01:12:47.665Z,53.68
2018-04-12T01:15:13.485Z,53.84
2018-04-12T01:17:39.292Z,53.21
2018-04-12T01:20:05.112Z,53.64
2018-04-12T01:22:31.072Z,53.56
2018-04-12T01:24:56.877Z,53.80
2018-04-12T01:27:29.593Z,53.86
2018-04-12T01:29:55.400Z,53.49
2018-04-12T01:32:21.208Z,53.52
2018-04-12T01:34:47.008Z,53.75
2018-04-12T01:37:12.809Z,53.70
2018-04-12T01:39:38.620Z,53.81
2018-04-12T01:42:04.436Z,53.77
2018-04-12T01:44:37.025Z,54.04
2018-04-12T01:47:02.864Z,54.25
2018-04-12T01:49:28.673Z,53.89
2018-04-12T01:51:54.513Z,54.24
2018-04-12T01:54:20.369Z,54.23
2018-04-12T01:56:46.172Z,54.40
2018-04-12T01:59:11.978Z,53.66
2018-04-12T02:01:37.789Z,54.28
2018-04-12T02:04:03.602Z,54.17
2018-04-12T02:06:29.414Z,54.72
2018-04-12T02:08:55.257Z,54.15
2018-04-12T02:11:21.081Z,54.03
2018-04-12T02:13:46.912Z,53.45
2018-04-12T02:16:12.726Z,54.44
2018-04-12T02:18:38.557Z,53.98
2018-04-12T02:21:04.381Z,53.89
2018-04-12T02:23:30.217Z,54.08
2018-04-12T02:25:56.029Z,54.13
2018-04-12T02:28:23.353Z,53.94
2018-04-12T02:30:49.165Z,54.24
2018-04-12T02:33:14.973Z,53.94
2018-04-12T02:35:40.813Z,54.41
2018-04-12T02:38:06.639Z,53.75
2018-04-12T02:40:32.449Z,53.66
2018-04-12T02:42:58.253Z,54.00
2018-04-12T02:45:24.065Z,54.13
2018-04-12T02:47:49.875Z,54.13
2018-04-12T02:50:15.813Z,54.08
2018-04-12T02:52:41.623Z,54.16
2018-04-12T02:55:07.429Z,54.16
2018-04-12T02:57:33.237Z,53.83
2018-04-12T02:59:59.040Z,54.20
2018-04-12T03:02:24.849Z,54.24
2018-04-12T03:04:50.656Z,54.25
2018-04-12T03:07:16.462Z,53.83
2018-04-12T03:09:42.264Z,54.12
2018-04-12T03:12:08.085Z,53.58
2018-04-12T03:14:33.900Z,53.97
2018-04-12T03:16:59.704Z,54.13
2018-04-12T03:19:25.514Z,54.26
2018-04-12T03:21:51.368Z,53.94
2018-04-12T03:24:17.174Z,53.97
2018-04-12T03:26:43.012Z,53.88
2018-04-12T03:29:08.836Z,54.04
2018-04-12T03:31:34.653Z,54.24
2018-04-12T03:34:00.457Z,54.20
2018-04-12T03:36:26.265Z,54.15
2018-04-12T03:38:52.073Z,54.10
2018-04-12T03:41:17.896Z,53.92
2018-04-12T03:43:43.707Z,54.35
2018-04-12T03:46:09.512Z,53.72
2018-04-12T03:48:35.351Z,53.95
2018-04-12T03:51:01.209Z,54.06
2018-04-12T03:53:27.037Z,54.06
2018-04-12T03:55:52.875Z,54.29
2018-04-12T03:58:18.677Z,54.50
2018-04-12T04:00:44.504Z,54.08
2018-04-12T04:03:10.320Z,53.66
2018-04-12T04:05:36.918Z,53.81
2018-04-12T04:08:02.725Z,54.32
2018-04-12T04:10:28.532Z,53.98
2018-04-12T04:12:54.378Z,54.09
2018-04-12T04:15:26.265Z,53.86
2018-04-12T04:17:58.185Z,54.30
2018-04-12T04:20:30.153Z,54.37
2018-04-12T04:22:55.961Z,53.75
2018-04-12T04:25:21.802Z,54.34
2018-04-12T04:27:54.516Z,54.23
2018-04-12T04:30:20.360Z,54.21
2018-04-12T04:32:46.169Z,54.00
2018-04-12T04:35:11.980Z,53.53
2018-04-12T04:37:38.604Z,53.52
2018-04-12T04:40:04.416Z,54.36
2018-04-12T04:42:30.228Z,53.70
2018-04-12T04:44:56.083Z,54.02
2018-04-12T04:47:21.937Z,54.04
2018-04-12T04:49:47.745Z,54.04
2018-04-12T04:52:13.606Z,54.24
2018-04-12T04:54:39.409Z,53.75
2018-04-12T04:57:05.229Z,53.50
2018-04-12T04:59:31.037Z,54.06
2018-04-12T05:01:56.860Z,53.86
2018-04-12T05:04:22.665Z,53.76
2018-04-12T05:06:48.499Z,53.65
2018-04-12T05:09:14.329Z,53.75
2018-04-12T05:11:40.133Z,53.46
2018-04-12T05:14:05.968Z,53.87
2018-04-12T05:16:31.774Z,53.26
2018-04-12T05:18:57.604Z,52.16
2018-04-12T05:21:23.441Z,52.95
2018-04-12T05:23:49.267Z,53.18
2018-04-12T05:26:15.097Z,53.12
2018-04-12T05:28:40.903Z,53.69
2018-04-12T05:31:06.743Z,53.94
2018-04-12T05:33:32.548Z,53.50
2018-04-12T05:35:58.450Z,53.53
2018-04-12T05:38:24.479Z,53.69
2018-04-12T05:40:50.333Z,53.98
2018-04-12T05:43:16.264Z,53.23
2018-04-12T05:45:42.073Z,53.94
2018-04-12T05:48:07.881Z,53.44
2018-04-12T05:50:33.692Z,54.10
2018-04-12T05:52:59.541Z,54.12
2018-04-12T05:55:25.388Z,54.24
2018-04-12T05:57:51.341Z,54.14
2018-04-12T06:00:17.157Z,53.78
2018-04-12T06:02:42.960Z,54.06
2018-04-12T06:05:08.768Z,54.16
2018-04-12T06:07:34.580Z,53.98
2018-04-12T06:10:00.385Z,53.84
2018-04-12T06:12:26.197Z,54.08
2018-04-12T06:14:52.004Z,53.88
2018-04-12T06:17:17.817Z,53.85
2018-04-12T06:19:44.421Z,53.55
2018-04-12T06:22:10.236Z,52.64
2018-04-12T06:24:36.054Z,52.81
2018-04-12T06:27:01.908Z,52.43
2018-04-12T06:29:27.705Z,51.85
2018-04-12T06:31:53.564Z,51.91
2018-04-12T06:34:19.372Z,51.46
2018-04-12T06:36:45.185Z,50.87
2018-04-12T06:39:10.989Z,50.96
2018-04-12T06:41:36.805Z,51.65
2018-04-12T06:44:02.645Z,50.86
2018-04-12T06:46:28.468Z,51.83
2018-04-12T06:48:54.269Z,51.85
2018-04-12T06:51:20.073Z,51.94
2018-04-12T06:53:45.885Z,52.39
2018-04-12T06:56:11.704Z,52.41
2018-04-12T06:58:37.512Z,52.12
2018-04-12T07:01:03.322Z,52.44
2018-04-12T07:03:29.168Z,52.76
2018-04-12T07:05:55.171Z,52.54
2018-04-12T07:08:21.067Z,52.17
2018-04-12T07:10:46.882Z,52.54
2018-04-12T07:13:12.733Z,52.72
2018-04-12T07:15:38.543Z,52.73
2018-04-12T07:18:04.388Z,52.71
2018-04-12T07:20:30.197Z,52.51
2018-04-12T07:22:56.097Z,53.18
2018-04-12T07:25:21.906Z,52.98
2018-04-12T07:27:47.725Z,53.12
2018-04-12T07:30:13.951Z,52.96
2018-04-12T07:32:39.821Z,53.03
2018-04-12T07:35:05.649Z,52.82
2018-04-12T07:37:31.556Z,52.90
2018-04-12T07:39:57.405Z,53.13
2018-04-12T07:42:23.277Z,53.04
2018-04-12T07:44:49.125Z,52.86
2018-04-12T07:47:14.973Z,52.86
2018-04-12T07:49:40.824Z,53.05
2018-04-12T07:52:07.632Z,52.97
2018-04-12T07:54:33.470Z,53.27
2018-04-12T07:56:59.278Z,53.23
2018-04-12T07:59:25.126Z,53.36
2018-04-12T08:01:50.974Z,53.11
2018-04-12T08:04:16.809Z,52.75
2018-04-12T08:06:42.668Z,52.32
2018-04-12T08:09:08.486Z,51.89
2018-04-12T08:11:34.323Z,51.73
2018-04-12T08:14:00.137Z,51.56
2018-04-12T08:16:26.001Z,51.72
2018-04-12T08:18:51.806Z,51.64
2018-04-12T08:21:17.653Z,51.70
2018-04-12T08:23:43.493Z,51.73
2018-04-12T08:26:09.333Z,51.92
2018-04-12T08:28:35.134Z,51.89
2018-04-12T08:31:00.943Z,52.06
2018-04-12T08:33:26.780Z,51.90
2018-04-12T08:35:52.594Z,52.06
2018-04-12T08:38:18.461Z,51.87
2018-04-12T08:40:44.264Z,52.06
2018-04-12T08:43:10.096Z,52.23
2018-04-12T08:45:36.725Z,52.44
2018-04-12T08:48:02.563Z,52.36
2018-04-12T08:50:28.370Z,52.17
2018-04-12T08:52:54.183Z,52.24
2018-04-12T08:55:19.996Z,52.19
2018-04-12T08:57:45.809Z,52.31
2018-04-12T09:00:11.618Z,52.37
2018-04-12T09:02:37.429Z,52.37
2018-04-12T09:05:03.265Z,52.29
2018-04-12T09:07:29.077Z,52.24
2018-04-12T09:09:54.929Z,52.25
2018-04-12T09:12:20.745Z,52.38
2018-04-12T09:14:46.545Z,52.26
2018-04-12T09:17:12.385Z,52.39
2018-04-12T09:19:38.197Z,52.44
2018-04-12T09:22:04.015Z,52.42
2018-04-12T09:24:29.839Z,52.68
2018-04-12T09:26:55.681Z,52.48
2018-04-12T09:29:21.485Z,52.48
2018-04-12T09:31:47.337Z,52.69
2018-04-12T09:34:13.144Z,52.42
2018-04-12T09:36:38.994Z,52.46
2018-04-12T09:39:04.817Z,52.76
2018-04-12T09:41:30.633Z,52.63
2018-04-12T09:43:56.440Z,52.55
2018-04-12T09:46:22.273Z,52.66
2018-04-12T09:48:48.093Z,52.61
2018-04-12T09:51:13.941Z,52.72
2018-04-12T09:53:39.753Z,52.62
2018-04-12T09:56:05.581Z,52.56
2018-04-12T09:58:31.397Z,52.58
2018-04-12T10:00:57.255Z,52.60
2018-04-12T10:03:23.077Z,52.73
2018-04-12T10:05:55.053Z,52.93
2018-04-12T10:08:27.946Z,52.69
2018-04-12T10:10:53.757Z,52.81
2018-04-12T10:13:19.580Z,52.77
2018-04-12T10:15:45.388Z,52.77
2018-04-12T10:18:11.195Z,53.00
2018-04-12T10:20:37.002Z,52.84
2018-04-12T10:23:02.813Z,52.74
2018-04-12T10:25:28.632Z,52.91
2018-04-12T10:27:54.473Z,52.96
2018-04-12T10:30:20.285Z,52.91
2018-04-12T10:32:46.102Z,52.79
2018-04-12T10:35:11.926Z,52.72
2018-04-12T10:37:37.740Z,52.66
2018-04-12T10:40:03.552Z,52.91
2018-04-12T10:42:29.355Z,52.98
2018-04-12T10:44:55.181Z,52.77
2018-04-12T10:47:20.985Z,52.98
2018-04-12T10:49:46.797Z,52.87
2018-04-12T10:52:19.433Z,52.83
2018-04-12T10:54:45.245Z,53.00
2018-04-12T10:57:11.069Z,52.93
2018-04-12T10:59:36.921Z,52.94
2018-04-12T11:02:02.757Z,52.99
2018-04-12T11:04:28.613Z,52.95
2018-04-12T11:06:54.416Z,52.94
2018-04-12T11:09:20.252Z,53.04
2018-04-12T11:11:46.084Z,52.85
2018-04-12T11:14:11.919Z,53.06
2018-04-12T11:16:37.728Z,53.00
2018-04-12T11:19:03.565Z,53.12
2018-04-12T11:21:29.392Z,53.18
2018-04-12T11:23:56.109Z,52.96
2018-04-12T11:26:21.918Z,52.94
2018-04-12T11:28:54.561Z,52.97
2018-04-12T11:31:20.373Z,53.08
2018-04-12T11:33:46.226Z,52.88
2018-04-12T11:36:12.037Z,52.75
2018-04-12T11:38:37.900Z,52.62
2018-04-12T11:41:03.749Z,52.57
2018-04-12T11:43:29.556Z,52.62
2018-04-12T11:45:55.397Z,52.62
2018-04-12T11:48:21.204Z,52.53
2018-04-12T11:50:47.056Z,52.24
2018-04-12T11:53:12.869Z,52.23
2018-04-12T11:55:38.688Z,52.30
2018-04-12T11:58:04.533Z,52.18
2018-04-12T12:00:30.346Z,52.25
2018-04-12T12:02:56.157Z,52.11
2018-04-12T12:05:21.957Z,52.20
2018-04-12T12:07:47.760Z,52.22
2018-04-12T12:10:13.593Z,52.02
2018-04-12T12:12:39.417Z,52.08
2018-04-12T12:15:05.228Z,52.23
2018-04-12T12:17:31.045Z,52.07
2018-04-12T12:19:56.860Z,52.31
2018-04-12T12:22:22.674Z,52.22
2018-04-12T12:24:48.501Z,52.39
2018-04-12T12:27:14.317Z,52.30
2018-04-12T12:29:40.121Z,52.22
2018-04-12T12:32:05.925Z,52.14
2018-04-12T12:34:31.741Z,52.06
2018-04-12T12:36:57.585Z,52.19
2018-04-12T12:39:23.420Z,51.99
2018-04-12T12:41:49.257Z,52.16
2018-04-12T12:44:15.926Z,51.98
2018-04-12T12:46:41.773Z,52.06
2018-04-12T12:49:07.577Z,52.18
2018-04-12T12:51:33.416Z,52.22
2018-04-12T12:53:59.221Z,51.99
2018-04-12T12:56:25.057Z,51.95
2018-04-12T12:58:50.893Z,52.04
2018-04-12T13:01:16.720Z,52.11
2018-04-12T13:03:42.564Z,52.03
2018-04-12T13:06:08.401Z,52.20
2018-04-12T13:08:34.244Z,52.07
2018-04-12T13:11:00.053Z,52.11
2018-04-12T13:13:25.932Z,51.99
2018-04-12T13:15:51.741Z,52.09
2018-04-12T13:18:17.559Z,52.02
2018-04-12T13:20:43.374Z,52.04
2018-04-12T13:23:09.178Z,52.07
2018-04-12T13:25:34.989Z,52.04
2018-04-12T13:28:00.817Z,52.12
2018-04-12T13:30:26.646Z,52.00
2018-04-12T13:32:52.493Z,52.23
2018-04-12T13:35:18.296Z,52.27
2018-04-12T13:37:44.103Z,52.13
2018-04-12T13:40:09.909Z,52.26
2018-04-12T13:42:35.764Z,51.92
2018-04-12T13:45:01.606Z,52.08
2018-04-12T13:47:27.432Z,52.01
2018-04-12T13:49:53.260Z,52.02
2018-04-12T13:52:22.009Z,51.84
2018-04-12T13:54:47.818Z,51.96
2018-04-12T13:57:13.631Z,51.80
2018-04-12T13:59:39.447Z,51.71
2018-04-12T14:02:05.261Z,51.90
2018-04-12T14:04:31.065Z,51.91
2018-04-12T14:06:56.880Z,51.93
2018-04-12T14:09:22.699Z,51.87
2018-04-12T14:11:48.514Z,51.89
2018-04-12T14:14:14.320Z,51.89
2018-04-12T14:16:40.128Z,51.79
2018-04-12T14:19:05.937Z,51.74
2018-04-12T14:21:31.758Z,51.68
2018-04-12T14:23:57.573Z,51.76
2018-04-12T14:26:23.389Z,51.86
2018-04-12T14:28:49.225Z,51.68
2018-04-12T14:31:15.032Z,51.91
2018-04-12T14:33:40.836Z,51.72
2018-04-12T14:36:06.669Z,51.74
2018-04-12T14:38:32.516Z,51.79
2018-04-12T14:40:58.322Z,51.72
2018-04-12T14:43:24.165Z,51.66
2018-04-12T14:45:49.969Z,51.79
2018-04-12T14:48:15.785Z,51.95
2018-04-12T14:50:41.600Z,51.88
2018-04-12T14:53:07.405Z,51.84
2018-04-12T14:55:33.221Z,51.86
2018-04-12T14:57:59.050Z,51.99
2018-04-12T15:00:24.888Z,51.91
2018-04-12T15:02:50.700Z,51.90
2018-04-12T15:05:16.552Z,51.77
2018-04-12T15:07:42.361Z,51.94
2018-04-12T15:10:08.168Z,51.98
2018-04-12T15:12:33.973Z,52.00
2018-04-12T15:14:59.805Z,51.93
2018-04-12T15:17:25.617Z,52.01
2018-04-12T15:19:51.461Z,51.86
2018-04-12T15:22:17.283Z,51.94
2018-04-12T15:24:43.132Z,52.09
2018-04-12T15:27:08.944Z,51.91
2018-04-12T15:29:34.779Z,51.93
2018-04-12T15:32:00.639Z,51.99
2018-04-12T15:34:26.449Z,51.92
2018-04-12T15:36:52.269Z,51.88
2018-04-12T15:39:18.106Z,51.90
2018-04-12T15:41:43.960Z,51.75
2018-04-12T15:44:09.770Z,51.78
2018-04-12T15:46:35.595Z,51.85
2018-04-12T15:49:01.414Z,51.68
2018-04-12T15:51:27.264Z,51.64
2018-04-12T15:53:53.121Z,51.65
2018-04-12T15:56:18.932Z,51.67
2018-04-12T15:58:44.787Z,51.65
2018-04-12T16:01:10.612Z,51.80
2018-04-12T16:03:36.458Z,51.70
2018-04-12T16:06:02.272Z,51.85
2018-04-12T16:08:28.081Z,51.79
2018-04-12T16:10:53.889Z,51.73
2018-04-12T16:13:19.696Z,51.99
2018-04-12T16:15:46.361Z,51.61
2018-04-12T16:18:12.173Z,52.00
2018-04-12T16:20:37.983Z,52.01
2018-04-12T16:23:03.792Z,51.84
2018-04-12T16:25:29.628Z,51.96
2018-04-12T16:27:55.464Z,52.04
2018-04-12T16:30:21.283Z,52.14
2018-04-12T16:32:47.133Z,52.25
2018-04-12T16:35:12.948Z,52.27
2018-04-12T16:37:38.798Z,52.50
2018-04-12T16:40:04.608Z,52.46
2018-04-12T16:42:30.426Z,52.57
2018-04-12T16:44:56.253Z,52.66
2018-04-12T16:47:22.077Z,52.83
2018-04-12T16:49:47.937Z,53.01
2018-04-12T16:52:13.768Z,52.99
2018-04-12T16:54:39.582Z,52.95
2018-04-12T16:57:05.425Z,53.34
2018-04-12T16:59:31.248Z,53.15
2018-04-12T17:01:57.120Z,53.25
2018-04-12T17:04:22.938Z,53.16
2018-04-12T17:06:48.755Z,53.30
2018-04-12T17:09:14.560Z,53.35
2018-04-12T17:11:40.384Z,53.31
2018-04-12T17:14:06.221Z,53.34
2018-04-12T17:16:32.061Z,53.51
2018-04-12T17:18:57.875Z,53.61
2018-04-12T17:21:23.702Z,53.79
2018-04-12T17:23:49.544Z,53.78
2018-04-12T17:26:15.361Z,53.81
2018-04-12T17:28:41.186Z,53.96
2018-04-12T17:31:07.008Z,53.95
2018-04-12T17:33:32.829Z,54.09
2018-04-12T17:35:58.649Z,54.11
2018-04-12T17:38:24.485Z,54.27
2018-04-12T17:40:50.293Z,54.21
2018-04-12T17:43:16.117Z,54.11
2018-04-12T17:45:41.953Z,53.97
2018-04-12T17:48:07.841Z,53.30
2018-04-12T17:50:33.681Z,52.71
2018-04-12T17:52:59.520Z,52.27
2018-04-12T17:55:25.332Z,52.05
2018-04-12T17:57:51.154Z,51.93
2018-04-12T18:00:17.008Z,51.71
2018-04-12T18:02:42.820Z,51.65
2018-04-12T18:05:08.640Z,51.50
2018-04-12T18:07:34.450Z,51.65
2018-04-12T18:10:00.306Z,51.74
2018-04-12T18:12:26.124Z,51.83
2018-04-12T18:14:51.939Z,51.90
2018-04-12T18:17:17.756Z,51.84
2018-04-12T18:19:43.575Z,51.92
2018-04-12T18:22:09.417Z,51.86
2018-04-12T18:24:35.230Z,51.98
2018-04-12T18:27:01.078Z,52.12
2018-04-12T18:29:26.893Z,52.16
2018-04-12T18:31:52.757Z,52.11
2018-04-12T18:34:18.573Z,52.30
2018-04-12T18:36:44.432Z,52.33
2018-04-12T18:39:10.253Z,52.41
2018-04-12T18:41:36.098Z,52.53
2018-04-12T18:44:01.914Z,52.70
2018-04-12T18:46:27.753Z,52.53
2018-04-12T18:48:53.573Z,52.69
2018-04-12T18:51:19.393Z,52.81
2018-04-12T18:53:45.245Z,52.71
2018-04-12T18:56:11.058Z,52.75
2018-04-12T18:58:36.867Z,52.68
2018-04-12T19:01:02.688Z,52.84
2018-04-12T19:03:28.501Z,52.80
2018-04-12T19:05:55.214Z,52.97
2018-04-12T19:08:21.029Z,52.82
2018-04-12T19:10:46.854Z,53.30
2018-04-12T19:13:12.693Z,52.94
2018-04-12T19:15:38.506Z,53.07
2018-04-12T19:18:04.867Z,53.13
2018-04-12T19:20:31.136Z,53.21
2018-04-12T19:22:57.434Z,53.21
2018-04-12T19:25:23.517Z,53.32
2018-04-12T19:27:50.400Z,53.39
2018-04-12T19:30:17.950Z,53.19
2018-04-12T19:32:43.795Z,53.49
2018-04-12T19:35:10.952Z,53.44
2018-04-12T19:37:37.922Z,53.52
2018-04-12T19:40:05.323Z,53.52
2018-04-12T19:42:31.675Z,53.49
2018-04-12T19:44:58.337Z,53.48
2018-04-12T19:47:25.558Z,53.55
2018-04-12T19:49:52.767Z,53.52
2018-04-12T19:52:20.017Z,53.67
2018-04-12T19:54:46.379Z,53.66
2018-04-12T19:57:13.089Z,53.54
2018-04-12T19:59:40.372Z,53.83
2018-04-12T20:02:07.183Z,53.63
2018-04-12T20:04:33.548Z,53.78
2018-04-12T20:06:59.858Z,53.91
2018-04-12T20:09:27.426Z,54.01
2018-04-12T20:11:53.774Z,53.89
2018-04-12T20:14:37.083Z,53.90
2018-04-12T20:17:04.210Z,54.02
2018-04-12T20:19:31.330Z,54.00
2018-04-12T20:21:58.070Z,54.11
2018-04-12T20:24:24.299Z,54.10
2018-04-12T20:26:51.061Z,54.18
2018-04-12T20:29:18.008Z,54.21
2018-04-12T20:31:46.614Z,54.30
2018-04-12T20:34:14.122Z,54.39
2018-04-12T20:36:41.652Z,54.42
2018-04-12T20:39:08.546Z,54.31
2018-04-12T20:41:34.402Z,54.39
2018-04-12T20:44:01.094Z,54.36
2018-04-12T20:46:26.939Z,54.40
2018-04-12T20:48:52.760Z,54.48
2018-04-12T20:51:18.666Z,54.39
2018-04-12T20:53:46.138Z,54.50
2018-04-12T20:56:14.764Z,54.47
2018-04-12T20:58:43.073Z,54.56
2018-04-12T21:01:10.312Z,54.45
2018-04-12T21:03:37.693Z,54.52
2018-04-12T21:06:04.389Z,54.48
2018-04-12T21:08:31.249Z,54.72
2018-04-12T21:10:58.231Z,54.60
2018-04-12T21:13:24.766Z,54.62
2018-04-12T21:15:52.110Z,54.86
2018-04-12T21:18:19.202Z,54.73
2018-04-12T21:20:46.015Z,54.89
2018-04-12T21:23:13.690Z,54.83
2018-04-12T21:25:39.553Z,55.00
2018-04-12T21:28:05.381Z,54.58
2018-04-12T21:30:31.214Z,54.76
2018-04-12T21:32:57.073Z,54.80
2018-04-12T21:35:22.889Z,54.76
2018-04-12T21:37:48.730Z,55.03
2018-04-12T21:40:14.601Z,54.85
2018-04-12T21:42:40.445Z,55.07
2018-04-12T21:45:06.262Z,54.99
2018-04-12T21:47:32.092Z,54.91
2018-04-12T21:49:57.909Z,55.00
2018-04-12T21:52:23.773Z,55.00
2018-04-12T21:54:49.602Z,55.18
2018-04-12T21:57:15.601Z,55.17
2018-04-12T21:59:42.127Z,55.21
2018-04-12T22:02:08.005Z,55.17
2018-04-12T22:04:33.820Z,55.06
2018-04-12T22:06:59.636Z,55.16
2018-04-12T22:09:25.467Z,55.18
2018-04-12T22:11:51.305Z,55.19
2018-04-12T22:14:17.241Z,55.10
2018-04-12T22:16:43.170Z,55.04
2018-04-12T22:19:09.126Z,54.92
2018-04-12T22:21:34.986Z,54.83
2018-04-12T22:24:00.837Z,54.83
2018-04-12T22:26:27.122Z,54.74
2018-04-12T22:28:53.922Z,54.73
2018-04-12T22:31:19.940Z,54.63
2018-04-12T22:33:45.756Z,54.55
2018-04-12T22:36:11.564Z,54.64
2018-04-12T22:38:37.377Z,54.63
2018-04-12T22:41:03.200Z,54.65
2018-04-12T22:43:29.006Z,54.60
2018-04-12T22:45:54.821Z,54.65
2018-04-12T22:48:20.645Z,54.36
2018-04-12T22:50:46.461Z,54.32
2018-04-12T22:53:12.272Z,54.19
2018-04-12T22:55:38.090Z,54.27
2018-04-12T22:58:03.899Z,54.43
2018-04-12T23:00:29.708Z,54.38
2018-04-12T23:02:55.524Z,54.52
2018-04-12T23:05:21.360Z,54.46
2018-04-12T23:07:47.180Z,54.40
2018-04-12T23:10:13.016Z,54.56
2018-04-12T23:12:38.829Z,54.48
2018-04-12T23:15:04.674Z,54.71
2018-04-12T23:17:30.487Z,54.66
2018-04-12T23:19:56.298Z,54.60
2018-04-12T23:22:22.114Z,54.70
2018-04-12T23:24:47.965Z,54.71
2018-04-12T23:27:13.785Z,54.32
2018-04-12T23:29:39.604Z,54.23
2018-04-12T23:32:05.444Z,54.36
2018-04-12T23:34:31.274Z,54.31
2018-04-12T23:36:57.161Z,54.37
2018-04-12T23:39:22.996Z,54.33
2018-04-12T23:41:48.824Z,54.18
2018-04-12T23:44:14.640Z,54.33
2018-04-12T23:46:40.450Z,54.28
2018-04-12T23:49:06.273Z,54.13
2018-04-12T23:51:32.076Z,54.37
2018-04-12T23:53:57.889Z,54.38
2018-04-12T23:56:23.789Z,54.35
2018-04-12T23:58:49.610Z,54.33
